Time;durP1;ratioP1;P1;durP2;ratioP2;P2;SDS_P1;SDS_P2;PMS_P1;PMS_P2;Temp;Humidity;BMP_temperature;BMP_pressure;BME280_temperature;BME280_humidity;BME280_pressure;Samples;Min_cycle;Max_cycle;Signal;HPM_P1;HPM_P2
2021/10/30 00:02:50;;;;;;;42.70;24.57;;;;;;;4.43;69.85;99157.70;2190011;81;20998;-81
2021/10/30 00:05:53;;;;;;;43.43;25.07;;;;;;;4.36;69.91;99154.39;2190048;81;20926;-81
2021/10/30 00:08:53;;;;;;;39.03;23.90;;;;;;;4.28;70.07;99160.91;2189880;81;20956;-79
2021/10/30 00:11:54;;;;;;;43.10;23.60;;;;;;;4.24;70.16;99160.31;2190140;81;20967;-82
2021/10/30 00:14:54;;;;;;;41.80;24.43;;;;;;;4.12;70.11;99159.39;2190067;81;20932;-82
2021/10/30 00:17:55;;;;;;;46.90;26.07;;;;;;;4.07;70.65;99150.56;2190148;81;20940;-81
2021/10/30 00:20:57;;;;;;;44.27;24.73;;;;;;;4.08;70.86;99145.88;2190071;81;20917;-81
2021/10/30 00:23:58;;;;;;;44.70;25.03;;;;;;;4.15;71.12;99153.06;2190160;81;20948;-81
2021/10/30 00:26:58;;;;;;;45.90;25.50;;;;;;;4.21;71.27;99145.56;2190229;81;20928;-81
2021/10/30 00:29:59;;;;;;;48.20;25.43;;;;;;;4.26;71.05;99142.76;2189870;81;21007;-81
2021/10/30 00:32:59;;;;;;;41.97;25.17;;;;;;;4.31;71.06;99142.95;2190044;81;21335;-82
2021/10/30 00:36:00;;;;;;;43.00;25.83;;;;;;;4.33;71.12;99137.02;2189886;81;21355;-82
2021/10/30 00:39:00;;;;;;;45.67;26.27;;;;;;;4.35;71.03;99134.13;2189958;81;20944;-82
2021/10/30 00:42:01;;;;;;;47.00;26.23;;;;;;;4.39;71.04;99131.25;2190011;81;20917;-82
2021/10/30 00:45:01;;;;;;;48.70;27.43;;;;;;;4.44;71.05;99141.37;2189957;81;20925;-83
2021/10/30 00:48:01;;;;;;;50.47;27.10;;;;;;;4.51;70.96;99145.97;2190149;81;20940;-82
2021/10/30 00:51:02;;;;;;;51.57;28.57;;;;;;;4.53;70.71;99151.20;2189129;81;21021;-82
2021/10/30 00:54:02;;;;;;;46.67;26.60;;;;;;;4.52;70.78;99153.31;2189733;81;20908;-82
2021/10/30 00:57:03;;;;;;;48.90;25.53;;;;;;;4.53;70.65;99154.66;2189292;81;21359;-83
2021/10/30 01:00:03;;;;;;;49.43;26.07;;;;;;;4.50;70.57;99158.42;2188836;81;20940;-81
2021/10/30 01:03:04;;;;;;;41.80;25.97;;;;;;;4.42;70.38;99152.05;2188890;81;20960;-81
2021/10/30 01:06:04;;;;;;;47.33;25.37;;;;;;;4.28;70.26;99152.75;2189983;81;20933;-81
2021/10/30 01:09:05;;;;;;;38.67;23.77;;;;;;;4.15;70.55;99153.06;2189863;81;20940;-82
2021/10/30 01:12:05;;;;;;;57.37;25.43;;;;;;;4.06;70.97;99144.92;2189346;81;21046;-81
2021/10/30 01:15:06;;;;;;;40.97;24.37;;;;;;;3.98;70.97;99147.59;2189586;81;20920;-81
2021/10/30 01:18:07;;;;;;;43.93;25.43;;;;;;;3.97;71.39;99150.99;2190050;81;20945;-81
2021/10/30 01:21:07;;;;;;;43.07;24.17;;;;;;;3.98;71.38;99146.30;2190011;81;20928;-82
2021/10/30 01:24:08;;;;;;;46.07;24.53;;;;;;;4.02;71.44;99145.61;2189936;81;21332;-82
2021/10/30 01:27:09;;;;;;;44.30;24.83;;;;;;;4.13;71.38;99139.20;2189489;81;21012;-82
2021/10/30 01:30:10;;;;;;;42.37;22.90;;;;;;;4.14;71.30;99142.25;2189929;81;21378;-82
2021/10/30 01:33:10;;;;;;;38.70;23.80;;;;;;;4.15;71.26;99133.69;2189573;81;21043;-80
2021/10/30 01:36:11;;;;;;;42.67;22.93;;;;;;;4.08;71.11;99135.13;2190075;81;20972;-82
2021/10/30 01:39:13;;;;;;;42.63;23.03;;;;;;;4.00;71.09;99131.75;2189927;81;20928;-81
2021/10/30 01:42:13;;;;;;;31.23;20.80;;;;;;;3.88;71.24;99129.94;2190001;81;20956;-81
2021/10/30 01:45:14;;;;;;;41.30;21.87;;;;;;;3.74;71.40;99129.35;2189996;81;20936;-82
2021/10/30 01:48:14;;;;;;;41.63;23.53;;;;;;;3.61;71.57;99122.78;2189919;81;20945;-81
2021/10/30 01:51:15;;;;;;;46.20;26.07;;;;;;;3.58;71.80;99123.05;2189981;81;21324;-82
2021/10/30 01:54:15;;;;;;;48.83;25.73;;;;;;;3.61;71.94;99125.77;2189940;81;20897;-82
2021/10/30 01:57:16;;;;;;;42.43;24.93;;;;;;;3.67;72.00;99121.75;2189993;81;20889;-82
2021/10/30 02:00:16;;;;;;;39.20;22.90;;;;;;;3.73;71.86;99122.02;2189915;81;20941;-81
2021/10/30 02:03:17;;;;;;;39.73;22.90;;;;;;;3.77;71.85;99123.03;2189723;81;21015;-83
2021/10/30 02:06:18;;;;;;;40.60;24.20;;;;;;;3.79;71.65;99114.53;2190187;81;20952;-83
2021/10/30 02:09:18;;;;;;;42.77;24.50;;;;;;;3.78;71.53;99116.64;2189402;81;20992;-81
2021/10/30 02:12:19;;;;;;;46.10;24.23;;;;;;;3.80;71.56;99116.30;2189290;81;20960;-80
2021/10/30 02:15:19;;;;;;;63.03;34.70;;;;;;;3.87;71.52;99111.39;2190070;81;20924;-79
2021/10/30 02:18:20;;;;;;;46.07;25.33;;;;;;;3.88;71.42;99107.58;2189981;81;21011;-82
2021/10/30 02:21:21;;;;;;;43.60;23.40;;;;;;;3.90;71.53;99104.66;2190134;81;20996;-81
2021/10/30 02:24:22;;;;;;;42.30;24.87;;;;;;;3.91;71.37;99096.50;2190165;81;21292;-80
2021/10/30 02:27:22;;;;;;;39.43;22.67;;;;;;;3.92;71.46;99099.14;2190243;81;21315;-81
2021/10/30 02:30:23;;;;;;;47.33;24.07;;;;;;;3.95;71.41;99096.69;2190235;81;20971;-81
2021/10/30 02:33:23;;;;;;;40.63;23.53;;;;;;;4.00;71.41;99089.13;2173517;81;21043;-81
2021/10/30 02:36:24;;;;;;;40.17;23.33;;;;;;;4.06;71.26;99085.52;2173697;81;20968;-82
2021/10/30 02:39:24;;;;;;;38.73;23.10;;;;;;;4.10;71.33;99077.06;2173633;81;20925;-81
2021/10/30 02:42:24;;;;;;;45.90;24.30;;;;;;;4.10;71.19;99088.69;2173579;81;20977;-80
2021/10/30 02:45:25;;;;;;;37.80;23.83;;;;;;;4.13;71.18;99087.53;2173679;81;20965;-81
2021/10/30 02:48:25;;;;;;;45.77;23.60;;;;;;;4.19;71.04;99086.89;2173432;81;20933;-81
2021/10/30 02:51:26;;;;;;;50.27;28.17;;;;;;;4.23;70.96;99088.78;2172780;81;21000;-81
2021/10/30 02:54:27;;;;;;;45.83;27.80;;;;;;;4.26;70.82;99086.32;2173453;81;20917;-81
2021/10/30 02:57:27;;;;;;;39.93;23.27;;;;;;;4.27;70.67;99081.22;2173520;81;20937;-81
2021/10/30 03:00:28;;;;;;;36.87;22.83;;;;;;;4.30;70.56;99083.04;2173572;82;20958;-81
2021/10/30 03:03:28;;;;;;;34.67;21.67;;;;;;;4.30;70.42;99085.63;2173151;81;20945;-83
2021/10/30 03:06:31;;;;;;;42.03;23.23;;;;;;;4.29;70.40;99094.20;2173615;81;21379;-82
2021/10/30 03:09:31;;;;;;;40.93;23.43;;;;;;;4.29;70.29;99083.45;2173709;81;21390;-81
2021/10/30 03:12:32;;;;;;;39.03;22.90;;;;;;;4.27;70.30;99086.80;2173447;82;20925;-82
2021/10/30 03:15:32;;;;;;;37.33;23.07;;;;;;;4.24;70.19;99090.14;2173451;81;20926;-82
2021/10/30 03:18:33;;;;;;;36.33;22.93;;;;;;;4.19;70.20;99098.11;2173390;81;21324;-82
2021/10/30 03:21:33;;;;;;;35.30;21.60;;;;;;;4.15;70.32;99103.97;2172452;81;21313;-82
2021/10/30 03:24:35;;;;;;;42.93;23.17;;;;;;;4.08;70.32;99103.25;2172798;81;20992;-82
2021/10/30 03:27:35;;;;;;;41.00;23.23;;;;;;;4.07;70.41;99100.19;2173428;81;21025;-81
2021/10/30 03:30:36;;;;;;;42.10;22.07;;;;;;;4.06;70.34;99099.72;2173097;81;20980;-81
2021/10/30 03:33:37;;;;;;;43.77;23.63;;;;;;;4.02;70.47;99098.71;2189121;81;21075;-80
2021/10/30 03:36:39;;;;;;;35.73;22.17;;;;;;;3.99;70.35;99097.29;2189621;81;20901;-82
2021/10/30 03:39:39;;;;;;;37.70;22.10;;;;;;;3.94;70.29;99094.05;2188284;81;21399;-81
2021/10/30 03:42:40;;;;;;;35.60;22.40;;;;;;;3.83;70.34;99097.47;2188227;81;20995;-82
2021/10/30 03:45:41;;;;;;;35.53;21.70;;;;;;;3.74;70.46;99099.25;2188298;81;20967;-81
2021/10/30 03:48:41;;;;;;;35.20;21.60;;;;;;;3.73;70.72;99094.91;2187956;81;21389;-81
2021/10/30 03:51:42;;;;;;;31.67;20.13;;;;;;;3.72;70.79;99093.14;2187673;81;21062;-81
2021/10/30 03:54:43;;;;;;;38.30;21.93;;;;;;;3.73;71.04;99094.02;2190011;81;21043;-81
2021/10/30 03:57:43;;;;;;;37.07;21.47;;;;;;;3.75;71.02;99097.14;2189856;81;20976;-81
2021/10/30 04:00:44;;;;;;;37.03;21.70;;;;;;;3.77;71.10;99092.92;2188565;81;21003;-81
2021/10/30 04:03:44;;;;;;;33.40;21.57;;;;;;;3.83;71.09;99088.43;2189768;81;21038;-81
2021/10/30 04:06:45;;;;;;;34.80;21.07;;;;;;;3.87;70.95;99089.03;2188160;81;20975;-82
2021/10/30 04:09:46;;;;;;;33.63;20.07;;;;;;;3.92;70.98;99086.23;2188454;81;21011;-81
2021/10/30 04:12:46;;;;;;;35.43;20.53;;;;;;;3.99;70.98;99088.66;2187999;81;21366;-81
2021/10/30 04:15:47;;;;;;;44.27;21.03;;;;;;;4.06;70.78;99082.92;2188817;81;20901;-81
2021/10/30 04:18:47;;;;;;;36.97;21.07;;;;;;;4.11;70.57;99082.70;2190186;81;21304;-82
2021/10/30 04:21:48;;;;;;;35.90;20.07;;;;;;;4.08;70.45;99078.30;2189349;81;20944;-82
2021/10/30 04:24:48;;;;;;;32.30;18.77;;;;;;;4.06;70.29;99074.77;2188587;81;20940;-82
2021/10/30 04:27:49;;;;;;;31.00;19.50;;;;;;;4.07;70.31;99075.23;2187756;81;21202;-82
2021/10/30 04:30:50;;;;;;;33.63;20.10;;;;;;;4.08;70.23;99078.70;2186556;81;21070;-80
2021/10/30 04:33:52;;;;;;;31.97;18.97;;;;;;;4.09;70.26;99076.59;2186173;81;21031;-82
2021/10/30 04:36:56;;;;;;;37.50;20.97;;;;;;;4.10;70.23;99083.12;2188120;81;20995;-84
2021/10/30 04:39:55;;;;;;;35.33;21.17;;;;;;;4.10;70.08;99087.40;2188060;81;21054;-82
2021/10/30 04:42:56;;;;;;;40.20;22.67;;;;;;;4.02;69.86;99081.92;2188252;81;20972;-83
2021/10/30 04:45:56;;;;;;;41.53;22.90;;;;;;;3.97;69.97;99083.43;2187903;81;20964;-82
2021/10/30 04:48:57;;;;;;;38.47;21.50;;;;;;;3.92;69.95;99082.36;2187327;81;21975;-81
2021/10/30 04:51:57;;;;;;;65.73;22.40;;;;;;;3.88;70.07;99083.05;2187344;81;21422;-81
2021/10/30 04:54:58;;;;;;;32.47;19.83;;;;;;;3.80;70.15;99082.73;2187316;81;21003;-80
2021/10/30 04:57:58;;;;;;;35.00;19.23;;;;;;;3.71;69.99;99066.84;2187552;81;20972;-81
2021/10/30 05:01:00;;;;;;;29.70;19.13;;;;;;;3.58;69.80;99067.15;2186722;81;21003;-79
2021/10/30 05:04:00;;;;;;;28.77;17.80;;;;;;;3.37;70.04;99062.32;2186800;81;21022;-79
2021/10/30 05:07:01;;;;;;;29.00;17.63;;;;;;;3.26;70.32;99057.98;2187459;81;21007;-78
2021/10/30 05:10:01;;;;;;;32.47;18.80;;;;;;;3.18;70.68;99064.50;2187577;81;21003;-78
2021/10/30 05:13:02;;;;;;;33.70;20.27;;;;;;;3.22;71.12;99062.53;2188900;81;20968;-78
2021/10/30 05:16:02;;;;;;;34.70;21.13;;;;;;;3.18;71.12;99065.39;2188245;81;20944;-78
2021/10/30 05:19:03;;;;;;;53.30;19.83;;;;;;;3.18;71.63;99070.55;2187336;81;20975;-78
2021/10/30 05:22:03;;;;;;;32.70;18.33;;;;;;;3.16;71.30;99069.59;2186421;81;21326;-78
2021/10/30 05:25:04;;;;;;;34.57;19.50;;;;;;;3.09;71.14;99068.84;2186571;81;20983;-79
2021/10/30 05:28:04;;;;;;;46.53;19.63;;;;;;;2.97;71.10;99068.30;2186814;81;20971;-78
2021/10/30 05:31:05;;;;;;;32.90;19.67;;;;;;;2.86;71.40;99074.66;2187191;81;20999;-78
2021/10/30 05:34:05;;;;;;;35.63;19.80;;;;;;;2.84;71.64;99075.00;2189042;81;21062;-78
2021/10/30 05:37:06;;;;;;;31.50;18.83;;;;;;;2.81;71.62;99076.15;2188512;81;21010;-78
2021/10/30 05:40:09;;;;;;;35.87;18.80;;;;;;;2.78;71.61;99082.45;2187361;81;21015;-79
2021/10/30 05:43:09;;;;;;;29.60;19.07;;;;;;;2.71;71.74;99082.98;2188467;81;20993;-79
2021/10/30 05:46:10;;;;;;;29.90;17.63;;;;;;;2.65;71.90;99078.42;2188337;81;21355;-78
2021/10/30 05:49:11;;;;;;;25.20;17.30;;;;;;;2.58;71.81;99086.66;2187656;81;20936;-78
2021/10/30 05:52:12;;;;;;;31.77;18.60;;;;;;;2.51;72.09;99084.19;2188324;81;21026;-78
2021/10/30 05:55:13;;;;;;;28.40;16.53;;;;;;;2.49;72.17;99081.95;2189961;81;21312;-78
2021/10/30 05:58:13;;;;;;;25.97;17.23;;;;;;;2.46;72.30;99085.67;2189378;81;20994;-78
2021/10/30 06:01:14;;;;;;;29.93;16.50;;;;;;;2.46;72.39;99089.53;2190475;81;20933;-78
2021/10/30 06:04:14;;;;;;;28.17;16.73;;;;;;;2.49;72.60;99084.53;2189405;81;21066;-77
2021/10/30 06:07:15;;;;;;;27.60;16.50;;;;;;;2.51;72.73;99091.05;2188154;81;21011;-78
2021/10/30 06:10:15;;;;;;;30.33;16.83;;;;;;;2.53;72.79;99086.44;2188483;81;20976;-78
2021/10/30 06:13:16;;;;;;;37.87;17.93;;;;;;;2.60;72.93;99095.38;2188304;81;21012;-78
2021/10/30 06:16:17;;;;;;;33.23;17.33;;;;;;;2.74;73.27;99093.44;2189157;81;21371;-77
2021/10/30 06:19:17;;;;;;;27.17;16.43;;;;;;;2.91;73.15;99091.23;2188169;81;21110;-77
2021/10/30 06:22:18;;;;;;;28.23;16.67;;;;;;;3.03;72.84;99094.36;2188686;81;21332;-77
2021/10/30 06:25:18;;;;;;;23.50;16.23;;;;;;;3.14;72.72;99097.02;2187692;81;21039;-77
2021/10/30 06:28:19;;;;;;;29.70;16.33;;;;;;;3.28;72.71;99091.18;2188868;81;20940;-77
2021/10/30 06:31:20;;;;;;;24.70;15.33;;;;;;;3.39;72.60;99086.49;2187609;81;21070;-77
2021/10/30 06:34:20;;;;;;;23.57;15.80;;;;;;;3.48;72.37;99083.05;2173391;81;21426;-77
2021/10/30 06:37:21;;;;;;;29.07;15.27;;;;;;;3.53;72.25;99083.25;2171912;81;21307;-77
2021/10/30 06:40:22;;;;;;;22.83;15.70;;;;;;;3.63;72.26;99086.30;2171101;81;21355;-77
2021/10/30 06:43:22;;;;;;;28.67;15.60;;;;;;;3.80;72.34;99085.31;2171198;81;20945;-78
2021/10/30 06:46:23;;;;;;;24.90;15.37;;;;;;;4.04;72.25;99082.86;2170857;81;20977;-79
2021/10/30 06:49:25;;;;;;;35.60;16.87;;;;;;;4.32;72.01;99080.98;2170830;81;20944;-79
2021/10/30 06:52:26;;;;;;;27.77;15.87;;;;;;;4.67;71.64;99095.75;2173446;81;21028;-79
2021/10/30 06:55:27;;;;;;;63.33;18.53;;;;;;;5.00;71.19;99092.27;2172565;81;21292;-79
2021/10/30 06:58:28;;;;;;;33.47;16.27;;;;;;;5.33;70.90;99090.08;2172375;81;20977;-79
2021/10/30 07:01:28;;;;;;;23.47;14.20;;;;;;;5.66;70.26;99083.92;2172658;81;20948;-79
2021/10/30 07:04:29;;;;;;;26.10;14.63;;;;;;;5.95;69.38;99083.66;2172709;81;21032;-79
2021/10/30 07:07:29;;;;;;;31.03;14.03;;;;;;;6.28;68.77;99087.40;2173178;81;20949;-79
2021/10/30 07:10:30;;;;;;;24.23;13.93;;;;;;;6.56;67.77;99081.38;2171583;81;20976;-79
2021/10/30 07:13:30;;;;;;;22.27;14.33;;;;;;;6.86;67.38;99082.73;2170635;81;20988;-79
2021/10/30 07:16:32;;;;;;;29.10;14.67;;;;;;;7.15;66.64;99084.05;2170292;81;21965;-79
2021/10/30 07:19:33;;;;;;;21.40;13.77;;;;;;;7.42;65.56;99090.45;2171576;81;21036;-80
2021/10/30 07:22:34;;;;;;;19.23;13.30;;;;;;;7.67;65.25;99091.58;2171844;82;21031;-79
2021/10/30 07:25:34;;;;;;;23.20;13.63;;;;;;;7.90;64.26;99090.92;2173028;81;20941;-79
2021/10/30 07:28:35;;;;;;;18.90;12.93;;;;;;;8.10;64.04;99083.22;2172678;81;20952;-78
2021/10/30 07:31:35;;;;;;;19.33;13.27;;;;;;;8.32;63.01;99089.83;2171027;81;21008;-79
2021/10/30 07:34:36;;;;;;;22.47;13.43;;;;;;;8.48;62.26;99086.80;2170453;81;21048;-78
2021/10/30 07:37:37;;;;;;;23.23;12.50;;;;;;;8.64;61.29;99084.13;2170286;81;21000;-79
2021/10/30 07:40:37;;;;;;;17.70;12.00;;;;;;;8.80;61.58;99084.97;2171122;81;21012;-79
2021/10/30 07:43:38;;;;;;;17.60;11.77;;;;;;;8.94;61.02;99087.88;2170650;81;21400;-78
2021/10/30 07:46:39;;;;;;;16.27;12.20;;;;;;;9.08;60.07;99085.58;2171408;81;20929;-79
2021/10/30 07:49:39;;;;;;;17.17;11.80;;;;;;;9.19;59.60;99082.78;2169388;81;20980;-78
2021/10/30 07:52:40;;;;;;;19.97;12.27;;;;;;;9.33;58.90;99081.33;2170745;81;21043;-78
2021/10/30 07:55:40;;;;;;;17.67;12.93;;;;;;;9.47;59.09;99085.52;2171922;81;20976;-78
2021/10/30 07:58:41;;;;;;;18.50;12.83;;;;;;;9.61;59.05;99081.91;2170846;81;20976;-79
2021/10/30 08:01:41;;;;;;;16.47;12.30;;;;;;;9.75;57.93;99085.24;2170031;81;21000;-78
2021/10/30 08:04:42;;;;;;;17.67;11.60;;;;;;;9.92;58.27;99080.77;2170723;81;21383;-78
2021/10/30 08:07:43;;;;;;;20.07;12.93;;;;;;;10.08;57.42;99082.36;2171982;81;21016;-78
2021/10/30 08:10:43;;;;;;;18.07;12.63;;;;;;;10.23;56.93;99083.52;2172039;81;20981;-78
2021/10/30 08:13:44;;;;;;;21.27;13.30;;;;;;;10.33;56.19;99081.51;2172209;81;20988;-78
2021/10/30 08:16:44;;;;;;;20.27;12.80;;;;;;;10.42;55.67;99076.47;2171900;81;20977;-79
2021/10/30 08:19:45;;;;;;;18.70;12.83;;;;;;;10.56;55.21;99072.77;2171965;81;20972;-79
2021/10/30 08:22:45;;;;;;;18.30;12.50;;;;;;;10.68;55.44;99073.84;2172126;81;20996;-78
2021/10/30 08:25:46;;;;;;;18.63;12.70;;;;;;;10.81;54.35;99071.86;2172131;81;21395;-78
2021/10/30 08:28:46;;;;;;;19.80;12.10;;;;;;;10.92;54.43;99065.48;2172484;81;21303;-79
2021/10/30 08:31:47;;;;;;;21.97;13.98;;;;;;;11.01;53.32;99064.72;2172799;81;20941;-78
2021/10/30 08:34:48;;;;;;;16.77;13.20;;;;;;;11.09;53.93;99077.46;2172534;81;21056;-79
2021/10/30 08:37:48;;;;;;;19.60;13.17;;;;;;;11.19;53.81;99072.80;2172703;81;20953;-77
2021/10/30 08:40:49;;;;;;;16.93;13.38;;;;;;;11.25;53.31;99066.35;2172344;81;20969;-78
2021/10/30 08:43:49;;;;;;;18.52;12.47;;;;;;;11.34;52.80;99058.66;2171618;81;21551;-78
2021/10/30 08:46:50;;;;;;;19.48;13.98;;;;;;;11.45;52.60;99062.28;2171620;81;21425;-79
2021/10/30 08:49:54;;;;;;;19.73;13.28;;;;;;;11.58;53.03;99059.38;2171585;82;21008;-79
2021/10/30 08:52:53;;;;;;;20.50;14.95;;;;;;;11.67;52.50;99057.28;2171561;81;21109;-78
2021/10/30 08:55:53;;;;;;;16.65;12.53;;;;;;;11.74;52.20;99048.64;2172317;81;20981;-78
2021/10/30 08:58:54;;;;;;;119.87;23.30;;;;;;;11.83;50.50;99052.70;2172848;81;20945;-77
2021/10/30 09:01:54;;;;;;;20.30;14.07;;;;;;;11.89;52.37;99045.34;2172241;81;20949;-77
2021/10/30 09:04:55;;;;;;;20.57;13.18;;;;;;;12.01;52.26;99038.48;2170875;81;20992;-77
2021/10/30 09:07:55;;;;;;;32.13;14.55;;;;;;;12.16;51.60;99040.39;2171623;81;20968;-77
2021/10/30 09:10:56;;;;;;;28.20;14.07;;;;;;;12.32;51.86;99041.39;2171783;81;21383;-78
2021/10/30 09:13:57;;;;;;;17.90;12.95;;;;;;;12.47;52.48;99041.94;2171367;81;21337;-77
2021/10/30 09:16:58;;;;;;;19.92;12.68;;;;;;;12.63;52.16;99048.61;2171785;81;20956;-78
2021/10/30 09:19:58;;;;;;;20.10;12.93;;;;;;;12.76;51.19;99036.03;2171902;81;20960;-77
2021/10/30 09:22:59;;;;;;;20.02;12.53;;;;;;;12.95;51.21;99047.93;2172918;81;20996;-78
2021/10/30 09:26:01;;;;;;;17.30;11.63;;;;;;;13.07;50.43;99041.47;2173005;82;20948;-77
2021/10/30 09:29:01;;;;;;;19.42;10.93;;;;;;;13.22;50.22;99046.83;2172540;81;21359;-77
2021/10/30 09:32:02;;;;;;;17.17;11.05;;;;;;;13.33;49.61;99042.50;2171820;81;20972;-77
2021/10/30 09:35:02;;;;;;;13.53;10.40;;;;;;;13.41;50.08;99036.41;2172593;81;21040;-77
2021/10/30 09:38:03;;;;;;;15.48;10.68;;;;;;;13.57;49.50;99038.20;2172947;81;21336;-76
2021/10/30 09:41:03;;;;;;;17.12;11.57;;;;;;;13.67;49.20;99038.67;2171038;81;21336;-77
2021/10/30 09:44:04;;;;;;;14.07;10.70;;;;;;;13.75;47.71;99043.94;2170762;81;21008;-77
2021/10/30 09:47:05;;;;;;;17.00;10.13;;;;;;;13.80;47.94;99036.95;2171051;82;21037;-77
2021/10/30 09:50:05;;;;;;;15.30;10.85;;;;;;;13.86;47.71;99038.27;2171291;81;20996;-77
2021/10/30 09:53:06;;;;;;;16.57;11.25;;;;;;;13.86;46.87;99037.84;2171010;81;20964;-77
2021/10/30 09:56:06;;;;;;;14.28;11.57;;;;;;;14.02;47.42;99037.02;2172615;81;20929;-77
2021/10/30 09:59:07;;;;;;;13.13;10.65;;;;;;;14.02;47.42;99037.02;2173015;81;20969;-76
2021/10/30 10:02:07;;;;;;;14.15;11.15;;;;;;;14.11;46.64;99033.96;2170116;81;20968;-77
2021/10/30 10:05:08;;;;;;;17.48;11.85;;;;;;;14.16;47.22;99031.78;2167870;81;21020;-77
2021/10/30 10:08:09;;;;;;;18.25;12.40;;;;;;;14.24;46.43;99023.91;2167816;81;20996;-76
2021/10/30 10:11:09;;;;;;;18.30;10.78;;;;;;;14.27;46.69;99016.91;2167330;81;21899;-77
2021/10/30 10:14:10;;;;;;;16.52;10.32;;;;;;;14.36;46.72;99013.39;2167769;81;21015;-77
2021/10/30 10:17:11;;;;;;;13.13;10.43;;;;;;;14.51;46.45;99008.60;2167231;81;20961;-77
2021/10/30 10:20:12;;;;;;;16.32;9.83;;;;;;;14.51;46.45;99008.60;2167348;81;21035;-77
2021/10/30 10:23:12;;;;;;;13.43;10.25;;;;;;;14.65;46.53;99011.64;2168055;81;20980;-77
2021/10/30 10:26:13;;;;;;;19.20;10.53;;;;;;;14.76;46.40;99006.84;2168216;81;20992;-77
2021/10/30 10:29:13;;;;;;;13.20;9.45;;;;;;;14.86;44.42;98999.36;2168195;81;21015;-77
2021/10/30 10:32:14;;;;;;;11.97;9.23;;;;;;;14.92;45.37;99001.97;2168721;81;21048;-77
2021/10/30 10:35:14;;;;;;;13.43;8.78;;;;;;;15.00;43.64;98988.80;2184215;81;21071;-77
2021/10/30 10:38:16;;;;;;;11.05;8.03;;;;;;;15.09;44.25;98988.77;2186308;81;20988;-77
2021/10/30 10:41:16;;;;;;;11.50;8.45;;;;;;;15.15;43.12;98988.30;2188057;81;20971;-77
2021/10/30 10:44:17;;;;;;;10.65;8.78;;;;;;;15.28;43.42;98981.23;2187810;81;20932;-77
2021/10/30 10:47:17;;;;;;;10.90;7.83;;;;;;;15.36;43.58;98982.51;2188138;81;20967;-76
2021/10/30 10:50:21;;;;;;;11.28;8.05;;;;;;;15.39;43.13;98975.91;2189554;81;20976;-77
2021/10/30 10:53:20;;;;;;;13.48;7.87;;;;;;;15.45;43.45;98969.30;2142594;83;21026;-77
2021/10/30 10:56:21;;;;;;;13.35;7.53;;;;;;;15.55;43.66;98972.31;2144469;83;20962;-78
2021/10/30 10:59:22;;;;;;;14.40;7.83;;;;;;;15.60;42.19;98972.78;2144392;83;20983;-77
2021/10/30 11:02:22;;;;;;;10.30;8.10;;;;;;;15.63;41.90;98969.27;2143896;83;20971;-78
2021/10/30 11:05:23;;;;;;;12.70;8.28;;;;;;;15.65;41.60;98959.59;2143445;83;21501;-78
2021/10/30 11:08:24;;;;;;;13.28;8.15;;;;;;;15.70;42.01;98947.28;2143070;83;21002;-77
2021/10/30 11:11:27;;;;;;;10.45;8.20;;;;;;;15.77;41.88;98946.35;2144226;83;21023;-78
2021/10/30 11:17:29;;;;;;;12.93;8.10;;;;;;;15.90;41.23;98941.42;2118184;83;21082;-77
2021/10/30 11:20:30;;;;;;;12.58;8.45;;;;;;;15.96;40.89;98943.58;2144161;83;20949;-78
2021/10/30 11:23:32;;;;;;;13.15;8.78;;;;;;;16.05;41.66;98942.19;2144971;83;20944;-78
2021/10/30 11:26:33;;;;;;;9.33;7.62;;;;;;;16.07;41.62;98944.36;2144948;83;21445;-78
2021/10/30 11:29:33;;;;;;;12.88;8.65;;;;;;;16.09;41.23;98936.00;2144651;83;20927;-78
2021/10/30 11:32:35;;;;;;;12.00;8.30;;;;;;;16.14;40.16;98928.94;2143963;83;21382;-78
2021/10/30 11:35:35;;;;;;;11.97;8.23;;;;;;;16.20;41.62;98938.97;2128764;83;21069;-78
2021/10/30 11:38:36;;;;;;;13.25;7.80;;;;;;;16.28;41.60;98936.27;2128935;84;21296;-78
2021/10/30 11:41:37;;;;;;;10.55;7.85;;;;;;;16.33;41.26;98932.27;2128644;84;20944;-78
2021/10/30 11:44:37;;;;;;;11.90;8.40;;;;;;;16.35;41.08;98930.05;2128707;84;20936;-78
2021/10/30 11:47:38;;;;;;;10.75;8.33;;;;;;;16.41;40.73;98934.37;2128211;84;21010;-78
2021/10/30 11:50:39;;;;;;;11.10;8.38;;;;;;;16.43;40.04;98929.97;2127678;84;21541;-78
2021/10/30 11:53:40;;;;;;;9.63;8.53;;;;;;;16.44;38.98;98927.77;2128610;84;20999;-77
2021/10/30 11:56:40;;;;;;;11.68;8.18;;;;;;;16.45;39.83;98929.06;2128709;84;20944;-78
2021/10/30 11:59:41;;;;;;;12.33;9.10;;;;;;;16.48;39.58;98936.09;2128723;84;21347;-78
2021/10/30 12:02:42;;;;;;;14.70;8.63;;;;;;;16.43;40.02;98927.34;2128447;84;21355;-77
2021/10/30 12:05:42;;;;;;;12.03;8.95;;;;;;;16.39;39.50;98927.81;2127298;84;21027;-77
2021/10/30 12:08:43;;;;;;;11.90;8.25;;;;;;;16.40;40.50;98929.56;2127289;84;20936;-78
2021/10/30 12:11:43;;;;;;;13.28;8.55;;;;;;;16.39;40.84;98929.58;2126959;84;21035;-78
2021/10/30 12:14:44;;;;;;;14.65;8.68;;;;;;;16.36;40.86;98921.25;2126053;84;20956;-78
2021/10/30 12:17:45;;;;;;;11.73;8.58;;;;;;;16.34;41.25;98918.20;2125736;84;21011;-77
2021/10/30 12:20:46;;;;;;;15.35;8.83;;;;;;;16.35;40.69;98915.56;2125924;84;20979;-78
2021/10/30 12:23:46;;;;;;;12.10;8.20;;;;;;;16.35;40.18;98912.05;2125921;84;21451;-78
2021/10/30 12:26:47;;;;;;;15.10;8.78;;;;;;;16.32;40.42;98915.59;2126412;84;21387;-78
2021/10/30 12:29:47;;;;;;;12.40;9.53;;;;;;;16.31;38.35;98898.48;2127696;84;21379;-78
2021/10/30 12:32:48;;;;;;;13.43;9.20;;;;;;;16.33;39.42;98905.48;2128353;84;21008;-78
2021/10/30 12:35:49;;;;;;;12.25;8.98;;;;;;;16.29;39.47;98895.86;2136512;83;21406;-78
2021/10/30 12:38:50;;;;;;;12.18;9.48;;;;;;;16.34;40.10;98903.72;2137354;83;21035;-78
2021/10/30 12:41:50;;;;;;;11.57;8.33;;;;;;;16.36;40.19;98904.58;2137633;83;20947;-78
2021/10/30 12:44:51;;;;;;;14.60;9.13;;;;;;;16.36;40.10;98908.09;2137275;83;21006;-78
2021/10/30 12:47:51;;;;;;;13.85;9.33;;;;;;;16.38;39.98;98901.04;2137355;83;20962;-78
2021/10/30 12:50:53;;;;;;;10.28;8.18;;;;;;;16.37;39.67;98901.05;2137937;83;20994;-78
2021/10/30 12:53:54;;;;;;;16.32;9.00;;;;;;;16.38;39.85;98894.45;2138118;83;20912;-78
2021/10/30 12:56:54;;;;;;;14.05;9.85;;;;;;;16.40;40.03;98891.80;2137167;83;20974;-78
2021/10/30 12:59:55;;;;;;;15.80;9.43;;;;;;;16.42;39.77;98894.84;2137975;83;20984;-78
2021/10/30 13:02:55;;;;;;;14.45;9.73;;;;;;;16.42;40.14;98890.89;2137992;83;21427;-79
2021/10/30 13:05:57;;;;;;;15.75;9.28;;;;;;;16.42;39.85;98891.34;2137525;83;21343;-78
2021/10/30 13:08:58;;;;;;;11.65;8.45;;;;;;;16.38;39.42;98895.77;2138287;83;21008;-79
2021/10/30 13:11:59;;;;;;;12.13;8.68;;;;;;;16.34;39.01;98890.11;2138041;83;21357;-79
2021/10/30 13:14:59;;;;;;;12.25;9.18;;;;;;;16.30;39.28;98888.84;2138382;83;20984;-79
2021/10/30 13:18:00;;;;;;;13.10;8.98;;;;;;;16.29;39.85;98884.02;2137701;83;20988;-80
2021/10/30 13:21:00;;;;;;;12.25;8.25;;;;;;;16.31;39.91;98882.23;2137472;83;20968;-79
2021/10/30 13:24:01;;;;;;;11.20;8.70;;;;;;;16.28;40.30;98873.05;2138231;83;20932;-79
2021/10/30 13:27:02;;;;;;;11.93;8.90;;;;;;;16.28;40.30;98873.05;2137488;83;20970;-79
2021/10/30 13:30:03;;;;;;;13.38;9.63;;;;;;;16.27;40.28;98869.11;2138019;83;20951;-80
2021/10/30 13:33:05;;;;;;;11.50;8.85;;;;;;;16.28;40.68;98863.83;2138221;83;21012;-79
2021/10/30 13:36:06;;;;;;;13.98;8.65;;;;;;;16.29;40.90;98864.70;2128800;83;21051;-79
2021/10/30 13:39:07;;;;;;;12.37;9.28;;;;;;;16.27;40.35;98858.13;2128747;84;21003;-79
2021/10/30 13:42:08;;;;;;;13.53;9.05;;;;;;;16.27;40.54;98859.45;2128098;84;20936;-80
2021/10/30 13:45:09;;;;;;;18.92;9.75;;;;;;;16.24;40.73;98860.80;2127474;84;21047;-79
2021/10/30 13:48:09;;;;;;;13.00;9.00;;;;;;;16.22;40.11;98857.31;2126955;84;20944;-79
2021/10/30 13:51:10;;;;;;;15.72;9.68;;;;;;;16.20;40.20;98863.04;2128220;84;21324;-79
2021/10/30 13:54:10;;;;;;;17.60;10.10;;;;;;;16.18;40.67;98863.50;2128581;84;21280;-80
2021/10/30 13:57:11;;;;;;;16.90;10.20;;;;;;;16.13;40.68;98860.91;2173191;81;20929;-80
2021/10/30 14:00:11;;;;;;;16.42;10.90;;;;;;;16.08;41.17;98868.43;2173234;81;20941;-79
2021/10/30 14:03:12;;;;;;;26.37;11.33;;;;;;;16.01;40.53;98864.11;2173088;81;20956;-79